Wonalancet, New Hampshire
Current Conditions -  °F | °C
As of 9:54 PM on Friday 21 Nov 2014 (Local Time) from KIZG Reporting Station
Clear Clear  
Wind Chill: 10°   Ceiling: Unl
Heat Index: 22°   Visibility: 10mi
Dew Point:   Wind: 12mph
Humidity: 46%   Direction: 280°W
Pressure: 30.3"   Gusts: 20mph
Location:  43.91°N, 71.35°W
Report Text: KIZG 220254Z AUTO 28010G17KT 10SM CLR M06/M16 A3030 RMK AO2 SLP269 T10561156 51013
Loading
Personal Weather Stations






























Interactive Weather Map New forecast layout! Learn more

10-Day Weather Forecast

Advertisements
Track Severe Weather on mobile